sensor_id;sensor_type;location;lat;lon;timestamp;P1;durP1;ratioP1;P2;durP2;ratioP2
48795;SDS011;34607;48.520;-1.330;2023-04-25T07:23:08;10.88;;;8.00;;
48795;SDS011;34607;48.520;-1.330;2023-04-25T07:25:35;14.70;;;7.82;;
48795;SDS011;34607;48.520;-1.330;2023-04-25T07:28:03;35.95;;;22.58;;
48795;SDS011;34607;48.520;-1.330;2023-04-25T07:30:31;45.25;;;28.92;;
48795;SDS011;34607;48.520;-1.330;2023-04-25T07:33:02;22.90;;;13.27;;
48795;SDS011;34607;48.520;-1.330;2023-04-25T07:35:29;10.25;;;7.22;;
48795;SDS011;34607;48.520;-1.330;2023-04-25T07:37:57;8.50;;;5.80;;
48795;SDS011;34607;48.520;-1.330;2023-04-25T07:40:25;10.52;;;6.07;;
48795;SDS011;34607;48.520;-1.330;2023-04-25T07:42:58;10.00;;;5.45;;
48795;SDS011;34607;48.520;-1.330;2023-04-25T07:45:38;8.90;;;5.57;;
48795;SDS011;34607;48.520;-1.330;2023-04-25T07:48:05;11.50;;;5.55;;
48795;SDS011;34607;48.520;-1.330;2023-04-25T07:50:35;7.72;;;5.47;;
48795;SDS011;34607;48.520;-1.330;2023-04-25T07:53:02;7.90;;;5.10;;
48795;SDS011;34607;48.520;-1.330;2023-04-25T07:55:41;8.73;;;5.63;;
48795;SDS011;34607;48.520;-1.330;2023-04-25T08:00:43;8.63;;;4.72;;
48795;SDS011;34607;48.520;-1.330;2023-04-25T08:03:28;7.72;;;5.25;;
48795;SDS011;34607;48.520;-1.330;2023-04-25T08:05:57;10.27;;;5.57;;
48795;SDS011;34607;48.520;-1.330;2023-04-25T08:08:26;9.55;;;5.35;;
48795;SDS011;34607;48.520;-1.330;2023-04-25T08:10:55;6.88;;;4.80;;
48795;SDS011;34607;48.520;-1.330;2023-04-25T08:13:22;9.85;;;4.78;;
48795;SDS011;34607;48.520;-1.330;2023-04-25T08:15:49;10.40;;;5.10;;
48795;SDS011;34607;48.520;-1.330;2023-04-25T08:18:16;10.10;;;4.75;;
48795;SDS011;34607;48.520;-1.330;2023-04-25T08:20:45;9.95;;;5.07;;
48795;SDS011;34607;48.520;-1.330;2023-04-25T08:23:13;8.40;;;5.55;;
48795;SDS011;34607;48.520;-1.330;2023-04-25T08:25:52;8.80;;;5.47;;
48795;SDS011;34607;48.520;-1.330;2023-04-25T08:28:24;8.73;;;4.32;;
48795;SDS011;34607;48.520;-1.330;2023-04-25T08:30:53;9.02;;;4.88;;
48795;SDS011;34607;48.520;-1.330;2023-04-25T08:33:20;11.10;;;4.90;;
48795;SDS011;34607;48.520;-1.330;2023-04-25T08:36:06;9.68;;;4.88;;
48795;SDS011;34607;48.520;-1.330;2023-04-25T08:38:34;7.60;;;4.75;;
48795;SDS011;34607;48.520;-1.330;2023-04-25T08:41:03;9.05;;;5.45;;
48795;SDS011;34607;48.520;-1.330;2023-04-25T08:43:34;9.25;;;4.85;;
48795;SDS011;34607;48.520;-1.330;2023-04-25T08:46:02;11.65;;;4.70;;
48795;SDS011;34607;48.520;-1.330;2023-04-25T08:48:36;10.85;;;5.07;;
48795;SDS011;34607;48.520;-1.330;2023-04-25T08:51:04;7.32;;;4.45;;
48795;SDS011;34607;48.520;-1.330;2023-04-25T08:53:33;10.95;;;4.07;;
48795;SDS011;34607;48.520;-1.330;2023-04-25T08:56:03;4.70;;;3.60;;
48795;SDS011;34607;48.520;-1.330;2023-04-25T08:58:36;7.53;;;3.97;;
48795;SDS011;34607;48.520;-1.330;2023-04-25T09:01:03;8.75;;;3.97;;
48795;SDS011;34607;48.520;-1.330;2023-04-25T09:03:38;5.18;;;3.17;;
48795;SDS011;34607;48.520;-1.330;2023-04-25T09:06:05;8.38;;;3.50;;
48795;SDS011;34607;48.520;-1.330;2023-04-25T09:08:33;5.70;;;3.05;;
48795;SDS011;34607;48.520;-1.330;2023-04-25T09:11:01;8.23;;;3.60;;
48795;SDS011;34607;48.520;-1.330;2023-04-25T09:13:28;8.00;;;4.30;;
48795;SDS011;34607;48.520;-1.330;2023-04-25T09:16:22;6.43;;;3.70;;
48795;SDS011;34607;48.520;-1.330;2023-04-25T09:19:20;7.93;;;4.47;;
48795;SDS011;34607;48.520;-1.330;2023-04-25T09:21:48;11.75;;;5.85;;
48795;SDS011;34607;48.520;-1.330;2023-04-25T09:24:15;5.40;;;3.58;;
48795;SDS011;34607;48.520;-1.330;2023-04-25T09:26:42;6.32;;;3.50;;
48795;SDS011;34607;48.520;-1.330;2023-04-25T09:29:10;7.15;;;3.60;;
48795;SDS011;34607;48.520;-1.330;2023-04-25T09:31:42;6.20;;;4.03;;
48795;SDS011;34607;48.520;-1.330;2023-04-25T09:34:10;6.65;;;3.50;;
48795;SDS011;34607;48.520;-1.330;2023-04-25T09:36:45;6.03;;;3.38;;
48795;SDS011;34607;48.520;-1.330;2023-04-25T09:39:23;7.78;;;4.30;;
48795;SDS011;34607;48.520;-1.330;2023-04-25T09:42:02;6.88;;;4.28;;
48795;SDS011;34607;48.520;-1.330;2023-04-25T09:44:30;6.05;;;2.72;;
48795;SDS011;34607;48.520;-1.330;2023-04-25T09:46:59;5.65;;;2.75;;
48795;SDS011;34607;48.520;-1.330;2023-04-25T09:49:29;6.07;;;3.17;;
48795;SDS011;34607;48.520;-1.330;2023-04-25T09:52:03;6.03;;;4.78;;
48795;SDS011;34607;48.520;-1.330;2023-04-25T09:54:47;7.50;;;3.78;;
48795;SDS011;34607;48.520;-1.330;2023-04-25T09:57:22;6.60;;;3.60;;
48795;SDS011;34607;48.520;-1.330;2023-04-25T09:59:52;7.25;;;3.60;;
48795;SDS011;34607;48.520;-1.330;2023-04-25T10:02:23;6.05;;;4.32;;
48795;SDS011;34607;48.520;-1.330;2023-04-25T10:04:56;10.02;;;4.32;;
48795;SDS011;34607;48.520;-1.330;2023-04-25T10:07:29;8.18;;;4.35;;
48795;SDS011;34607;48.520;-1.330;2023-04-25T10:10:00;6.25;;;2.90;;
48795;SDS011;34607;48.520;-1.330;2023-04-25T10:12:28;7.20;;;3.97;;
48795;SDS011;34607;48.520;-1.330;2023-04-25T10:14:56;7.18;;;3.67;;
48795;SDS011;34607;48.520;-1.330;2023-04-25T10:17:27;6.32;;;3.40;;
48795;SDS011;34607;48.520;-1.330;2023-04-25T10:19:54;8.18;;;3.28;;
48795;SDS011;34607;48.520;-1.330;2023-04-25T10:22:23;9.00;;;4.30;;
48795;SDS011;34607;48.520;-1.330;2023-04-25T10:24:57;6.47;;;4.03;;
48795;SDS011;34607;48.520;-1.330;2023-04-25T10:27:26;8.93;;;4.50;;
48795;SDS011;34607;48.520;-1.330;2023-04-25T10:30:00;9.38;;;3.95;;
48795;SDS011;34607;48.520;-1.330;2023-04-25T10:32:31;8.32;;;4.30;;
48795;SDS011;34607;48.520;-1.330;2023-04-25T10:35:09;11.07;;;5.40;;
48795;SDS011;34607;48.520;-1.330;2023-04-25T10:37:37;8.52;;;4.90;;
48795;SDS011;34607;48.520;-1.330;2023-04-25T10:40:08;10.25;;;4.72;;
48795;SDS011;34607;48.520;-1.330;2023-04-25T10:42:36;10.23;;;4.93;;
48795;SDS011;34607;48.520;-1.330;2023-04-25T10:45:04;8.18;;;4.97;;
48795;SDS011;34607;48.520;-1.330;2023-04-25T10:47:38;5.82;;;3.88;;
48795;SDS011;34607;48.520;-1.330;2023-04-25T10:50:11;9.65;;;3.95;;
48795;SDS011;34607;48.520;-1.330;2023-04-25T10:52:41;9.07;;;4.53;;
48795;SDS011;34607;48.520;-1.330;2023-04-25T10:55:09;6.22;;;4.03;;
48795;SDS011;34607;48.520;-1.330;2023-04-25T10:57:37;6.40;;;3.75;;
48795;SDS011;34607;48.520;-1.330;2023-04-25T11:00:07;5.20;;;3.90;;
48795;SDS011;34607;48.520;-1.330;2023-04-25T11:02:44;10.10;;;5.15;;
48795;SDS011;34607;48.520;-1.330;2023-04-25T11:05:20;9.30;;;4.90;;
48795;SDS011;34607;48.520;-1.330;2023-04-25T11:07:50;6.72;;;5.00;;
48795;SDS011;34607;48.520;-1.330;2023-04-25T11:10:19;13.68;;;5.53;;
48795;SDS011;34607;48.520;-1.330;2023-04-25T11:12:46;6.57;;;4.63;;
48795;SDS011;34607;48.520;-1.330;2023-04-25T11:15:13;8.98;;;5.05;;
48795;SDS011;34607;48.520;-1.330;2023-04-25T11:17:40;8.80;;;4.45;;
48795;SDS011;34607;48.520;-1.330;2023-04-25T11:20:11;10.70;;;5.20;;
48795;SDS011;34607;48.520;-1.330;2023-04-25T11:22:39;9.48;;;5.82;;
48795;SDS011;34607;48.520;-1.330;2023-04-25T11:25:07;11.02;;;5.90;;
48795;SDS011;34607;48.520;-1.330;2023-04-25T11:27:37;7.15;;;5.18;;
48795;SDS011;34607;48.520;-1.330;2023-04-25T11:30:13;11.38;;;6.00;;
48795;SDS011;34607;48.520;-1.330;2023-04-25T11:32:41;8.50;;;5.50;;
48795;SDS011;34607;48.520;-1.330;2023-04-25T11:35:08;11.55;;;5.47;;
48795;SDS011;34607;48.520;-1.330;2023-04-25T11:37:38;11.27;;;6.38;;
48795;SDS011;34607;48.520;-1.330;2023-04-25T11:40:06;9.57;;;5.88;;
48795;SDS011;34607;48.520;-1.330;2023-04-25T11:42:36;9.52;;;6.60;;
48795;SDS011;34607;48.520;-1.330;2023-04-25T11:45:05;11.45;;;6.50;;
48795;SDS011;34607;48.520;-1.330;2023-04-25T11:47:33;7.40;;;5.20;;
48795;SDS011;34607;48.520;-1.330;2023-04-25T11:50:00;11.43;;;6.07;;
48795;SDS011;34607;48.520;-1.330;2023-04-25T11:52:37;9.88;;;6.55;;
48795;SDS011;34607;48.520;-1.330;2023-04-25T11:55:06;8.50;;;6.30;;
48795;SDS011;34607;48.520;-1.330;2023-04-25T11:57:34;9.73;;;6.22;;
48795;SDS011;34607;48.520;-1.330;2023-04-25T12:00:10;8.65;;;5.47;;
48795;SDS011;34607;48.520;-1.330;2023-04-25T12:02:40;9.13;;;6.00;;
48795;SDS011;34607;48.520;-1.330;2023-04-25T12:05:08;10.07;;;6.10;;
48795;SDS011;34607;48.520;-1.330;2023-04-25T12:07:37;9.95;;;5.60;;
48795;SDS011;34607;48.520;-1.330;2023-04-25T12:10:04;10.88;;;6.00;;
48795;SDS011;34607;48.520;-1.330;2023-04-25T12:12:33;8.15;;;6.03;;
48795;SDS011;34607;48.520;-1.330;2023-04-25T12:15:08;9.27;;;5.30;;
48795;SDS011;34607;48.520;-1.330;2023-04-25T12:17:36;7.55;;;5.60;;
48795;SDS011;34607;48.520;-1.330;2023-04-25T12:20:07;12.57;;;5.63;;
48795;SDS011;34607;48.520;-1.330;2023-04-25T12:22:37;10.90;;;6.50;;
48795;SDS011;34607;48.520;-1.330;2023-04-25T12:25:10;9.13;;;6.22;;
48795;SDS011;34607;48.520;-1.330;2023-04-25T12:27:37;7.80;;;5.88;;
48795;SDS011;34607;48.520;-1.330;2023-04-25T12:30:08;8.75;;;5.10;;
48795;SDS011;34607;48.520;-1.330;2023-04-25T12:32:37;9.52;;;5.78;;
48795;SDS011;34607;48.520;-1.330;2023-04-25T12:35:04;6.97;;;5.15;;
48795;SDS011;34607;48.520;-1.330;2023-04-25T12:37:32;9.27;;;4.97;;
48795;SDS011;34607;48.520;-1.330;2023-04-25T12:40:00;8.73;;;5.32;;
48795;SDS011;34607;48.520;-1.330;2023-04-25T12:42:28;11.10;;;5.65;;
48795;SDS011;34607;48.520;-1.330;2023-04-25T12:44:55;10.25;;;4.88;;
48795;SDS011;34607;48.520;-1.330;2023-04-25T12:47:22;9.43;;;5.55;;
48795;SDS011;34607;48.520;-1.330;2023-04-25T12:49:49;8.25;;;4.50;;
48795;SDS011;34607;48.520;-1.330;2023-04-25T12:52:16;6.43;;;4.57;;
48795;SDS011;34607;48.520;-1.330;2023-04-25T12:54:43;8.02;;;4.90;;
48795;SDS011;34607;48.520;-1.330;2023-04-25T12:57:12;4.30;;;3.60;;
48795;SDS011;34607;48.520;-1.330;2023-04-25T12:59:39;6.43;;;4.10;;
48795;SDS011;34607;48.520;-1.330;2023-04-25T13:02:06;5.57;;;3.83;;
48795;SDS011;34607;48.520;-1.330;2023-04-25T13:04:33;8.20;;;3.83;;
48795;SDS011;34607;48.520;-1.330;2023-04-25T13:07:00;7.30;;;4.22;;
48795;SDS011;34607;48.520;-1.330;2023-04-25T13:09:27;4.88;;;3.40;;
48795;SDS011;34607;48.520;-1.330;2023-04-25T13:11:54;7.63;;;3.97;;
48795;SDS011;34607;48.520;-1.330;2023-04-25T13:14:24;5.70;;;3.97;;
48795;SDS011;34607;48.520;-1.330;2023-04-25T13:16:51;10.10;;;4.07;;
48795;SDS011;34607;48.520;-1.330;2023-04-25T13:19:19;9.05;;;4.47;;
48795;SDS011;34607;48.520;-1.330;2023-04-25T13:21:46;7.03;;;3.97;;
48795;SDS011;34607;48.520;-1.330;2023-04-25T13:24:13;7.90;;;4.32;;
48795;SDS011;34607;48.520;-1.330;2023-04-25T13:26:40;8.55;;;4.13;;
48795;SDS011;34607;48.520;-1.330;2023-04-25T13:29:08;6.78;;;4.00;;
48795;SDS011;34607;48.520;-1.330;2023-04-25T13:31:36;7.68;;;4.38;;
48795;SDS011;34607;48.520;-1.330;2023-04-25T13:34:03;6.10;;;4.07;;
48795;SDS011;34607;48.520;-1.330;2023-04-25T13:36:30;10.18;;;3.58;;
48795;SDS011;34607;48.520;-1.330;2023-04-25T13:38:58;8.48;;;4.45;;
48795;SDS011;34607;48.520;-1.330;2023-04-25T13:41:25;6.13;;;4.32;;
48795;SDS011;34607;48.520;-1.330;2023-04-25T13:43:52;6.32;;;4.35;;
48795;SDS011;34607;48.520;-1.330;2023-04-25T13:46:19;7.13;;;4.00;;
48795;SDS011;34607;48.520;-1.330;2023-04-25T13:48:47;9.43;;;4.68;;
48795;SDS011;34607;48.520;-1.330;2023-04-25T13:51:15;10.50;;;4.55;;
48795;SDS011;34607;48.520;-1.330;2023-04-25T13:53:43;9.13;;;4.85;;
48795;SDS011;34607;48.520;-1.330;2023-04-25T13:56:10;7.50;;;4.93;;
48795;SDS011;34607;48.520;-1.330;2023-04-25T13:58:37;14.05;;;6.55;;
48795;SDS011;34607;48.520;-1.330;2023-04-25T14:01:05;7.93;;;5.68;;
48795;SDS011;34607;48.520;-1.330;2023-04-25T14:03:32;7.57;;;5.43;;
48795;SDS011;34607;48.520;-1.330;2023-04-25T14:06:01;9.48;;;6.13;;
48795;SDS011;34607;48.520;-1.330;2023-04-25T14:08:29;9.35;;;6.25;;
48795;SDS011;34607;48.520;-1.330;2023-04-25T14:10:56;11.60;;;5.82;;
48795;SDS011;34607;48.520;-1.330;2023-04-25T14:13:23;9.88;;;6.20;;
48795;SDS011;34607;48.520;-1.330;2023-04-25T14:15:50;13.95;;;5.95;;
48795;SDS011;34607;48.520;-1.330;2023-04-25T14:18:17;8.25;;;5.43;;
48795;SDS011;34607;48.520;-1.330;2023-04-25T14:20:45;9.90;;;5.32;;
48795;SDS011;34607;48.520;-1.330;2023-04-25T14:23:13;10.52;;;4.68;;
48795;SDS011;34607;48.520;-1.330;2023-04-25T14:25:41;7.95;;;5.25;;
48795;SDS011;34607;48.520;-1.330;2023-04-25T14:28:08;7.25;;;5.80;;
48795;SDS011;34607;48.520;-1.330;2023-04-25T14:30:36;12.30;;;5.47;;
48795;SDS011;34607;48.520;-1.330;2023-04-25T14:33:03;9.63;;;5.40;;
48795;SDS011;34607;48.520;-1.330;2023-04-25T14:35:30;9.27;;;4.95;;
48795;SDS011;34607;48.520;-1.330;2023-04-25T14:37:57;9.18;;;4.65;;
48795;SDS011;34607;48.520;-1.330;2023-04-25T14:40:26;7.22;;;4.75;;
48795;SDS011;34607;48.520;-1.330;2023-04-25T14:42:53;6.85;;;4.50;;
48795;SDS011;34607;48.520;-1.330;2023-04-25T14:45:20;6.57;;;4.75;;
48795;SDS011;34607;48.520;-1.330;2023-04-25T14:47:47;8.02;;;5.07;;
48795;SDS011;34607;48.520;-1.330;2023-04-25T14:50:14;8.55;;;5.70;;
48795;SDS011;34607;48.520;-1.330;2023-04-25T14:52:41;6.47;;;5.15;;
48795;SDS011;34607;48.520;-1.330;2023-04-25T14:55:10;8.88;;;5.20;;
48795;SDS011;34607;48.520;-1.330;2023-04-25T14:57:38;8.32;;;5.18;;
48795;SDS011;34607;48.520;-1.330;2023-04-25T15:00:06;7.97;;;4.72;;
48795;SDS011;34607;48.520;-1.330;2023-04-25T15:02:34;8.85;;;4.65;;
48795;SDS011;34607;48.520;-1.330;2023-04-25T15:05:01;7.97;;;4.90;;
48795;SDS011;34607;48.520;-1.330;2023-04-25T15:07:29;7.55;;;5.03;;
48795;SDS011;34607;48.520;-1.330;2023-04-25T15:09:56;7.47;;;5.32;;
48795;SDS011;34607;48.520;-1.330;2023-04-25T15:12:23;10.38;;;5.45;;
48795;SDS011;34607;48.520;-1.330;2023-04-25T15:14:52;8.57;;;5.18;;
48795;SDS011;34607;48.520;-1.330;2023-04-25T15:17:19;8.43;;;4.75;;
48795;SDS011;34607;48.520;-1.330;2023-04-25T15:19:46;7.75;;;4.68;;
48795;SDS011;34607;48.520;-1.330;2023-04-25T15:22:13;9.10;;;4.75;;
48795;SDS011;34607;48.520;-1.330;2023-04-25T15:24:41;6.68;;;5.15;;
48795;SDS011;34607;48.520;-1.330;2023-04-25T15:27:08;8.45;;;4.65;;
48795;SDS011;34607;48.520;-1.330;2023-04-25T15:29:36;11.82;;;4.82;;
48795;SDS011;34607;48.520;-1.330;2023-04-25T15:32:04;9.30;;;4.13;;
48795;SDS011;34607;48.520;-1.330;2023-04-25T15:34:31;8.35;;;4.72;;
48795;SDS011;34607;48.520;-1.330;2023-04-25T15:36:58;6.50;;;3.78;;
48795;SDS011;34607;48.520;-1.330;2023-04-25T15:39:25;7.35;;;3.80;;
48795;SDS011;34607;48.520;-1.330;2023-04-25T15:41:52;8.93;;;3.83;;
48795;SDS011;34607;48.520;-1.330;2023-04-25T15:44:20;6.72;;;3.63;;
48795;SDS011;34607;48.520;-1.330;2023-04-25T15:46:47;5.63;;;3.97;;
48795;SDS011;34607;48.520;-1.330;2023-04-25T15:49:16;6.40;;;4.70;;
48795;SDS011;34607;48.520;-1.330;2023-04-25T15:51:43;8.20;;;4.35;;
48795;SDS011;34607;48.520;-1.330;2023-04-25T15:54:10;8.00;;;4.63;;
48795;SDS011;34607;48.520;-1.330;2023-04-25T15:56:38;8.32;;;4.45;;
48795;SDS011;34607;48.520;-1.330;2023-04-25T15:59:05;7.30;;;4.22;;
48795;SDS011;34607;48.520;-1.330;2023-04-25T16:01:32;5.85;;;3.83;;
48795;SDS011;34607;48.520;-1.330;2023-04-25T16:03:59;7.43;;;3.70;;
48795;SDS011;34607;48.520;-1.330;2023-04-25T16:06:28;7.72;;;4.40;;
48795;SDS011;34607;48.520;-1.330;2023-04-25T16:08:55;7.40;;;4.45;;
48795;SDS011;34607;48.520;-1.330;2023-04-25T16:11:22;7.55;;;4.35;;
48795;SDS011;34607;48.520;-1.330;2023-04-25T16:13:49;8.70;;;3.65;;
48795;SDS011;34607;48.520;-1.330;2023-04-25T16:16:16;11.57;;;4.60;;
48795;SDS011;34607;48.520;-1.330;2023-04-25T16:18:43;6.22;;;4.03;;
48795;SDS011;34607;48.520;-1.330;2023-04-25T16:21:10;7.43;;;4.32;;
48795;SDS011;34607;48.520;-1.330;2023-04-25T16:23:42;5.97;;;4.03;;
48795;SDS011;34607;48.520;-1.330;2023-04-25T16:26:09;6.57;;;3.90;;
48795;SDS011;34607;48.520;-1.330;2023-04-25T16:28:36;8.50;;;4.35;;
48795;SDS011;34607;48.520;-1.330;2023-04-25T16:31:03;6.30;;;3.63;;
48795;SDS011;34607;48.520;-1.330;2023-04-25T16:33:31;7.07;;;3.63;;
48795;SDS011;34607;48.520;-1.330;2023-04-25T16:35:58;4.30;;;3.42;;
48795;SDS011;34607;48.520;-1.330;2023-04-25T16:38:25;7.40;;;4.22;;
48795;SDS011;34607;48.520;-1.330;2023-04-25T16:40:54;7.32;;;4.32;;
48795;SDS011;34607;48.520;-1.330;2023-04-25T16:43:21;10.55;;;4.65;;
48795;SDS011;34607;48.520;-1.330;2023-04-25T16:45:48;5.55;;;4.10;;
48795;SDS011;34607;48.520;-1.330;2023-04-25T16:48:15;6.30;;;4.15;;
48795;SDS011;34607;48.520;-1.330;2023-04-25T16:50:45;5.22;;;3.60;;
48795;SDS011;34607;48.520;-1.330;2023-04-25T16:53:12;5.07;;;3.35;;
48795;SDS011;34607;48.520;-1.330;2023-04-25T16:55:39;7.63;;;3.60;;
48795;SDS011;34607;48.520;-1.330;2023-04-25T16:58:07;7.47;;;3.83;;
48795;SDS011;34607;48.520;-1.330;2023-04-25T17:00:36;8.73;;;4.50;;
48795;SDS011;34607;48.520;-1.330;2023-04-25T17:03:03;9.40;;;6.55;;
48795;SDS011;34607;48.520;-1.330;2023-04-25T17:05:30;16.23;;;10.15;;
48795;SDS011;34607;48.520;-1.330;2023-04-25T17:07:57;9.60;;;6.97;;
48795;SDS011;34607;48.520;-1.330;2023-04-25T17:10:25;10.05;;;6.03;;
48795;SDS011;34607;48.520;-1.330;2023-04-25T17:12:52;7.53;;;4.68;;
48795;SDS011;34607;48.520;-1.330;2023-04-25T17:15:20;6.32;;;3.92;;
48795;SDS011;34607;48.520;-1.330;2023-04-25T17:17:48;10.38;;;3.78;;
48795;SDS011;34607;48.520;-1.330;2023-04-25T17:20:15;7.00;;;4.63;;
48795;SDS011;34607;48.520;-1.330;2023-04-25T17:22:43;8.93;;;4.25;;
48795;SDS011;34607;48.520;-1.330;2023-04-25T17:25:10;5.82;;;4.32;;
48795;SDS011;34607;48.520;-1.330;2023-04-25T17:27:37;9.13;;;3.97;;
48795;SDS011;34607;48.520;-1.330;2023-04-25T17:30:05;10.52;;;3.92;;
48795;SDS011;34607;48.520;-1.330;2023-04-25T17:32:34;7.82;;;4.18;;
48795;SDS011;34607;48.520;-1.330;2023-04-25T17:35:01;6.38;;;3.75;;
48795;SDS011;34607;48.520;-1.330;2023-04-25T17:37:28;7.40;;;3.42;;
48795;SDS011;34607;48.520;-1.330;2023-04-25T17:39:56;5.30;;;3.22;;
48795;SDS011;34607;48.520;-1.330;2023-04-25T17:42:23;10.05;;;5.30;;
48795;SDS011;34607;48.520;-1.330;2023-04-25T17:44:50;6.85;;;4.75;;
48795;SDS011;34607;48.520;-1.330;2023-04-25T17:47:19;7.50;;;4.55;;
48795;SDS011;34607;48.520;-1.330;2023-04-25T17:49:47;8.57;;;4.10;;
48795;SDS011;34607;48.520;-1.330;2023-04-25T17:52:14;6.93;;;3.92;;
48795;SDS011;34607;48.520;-1.330;2023-04-25T17:54:41;8.98;;;4.18;;
48795;SDS011;34607;48.520;-1.330;2023-04-25T17:57:08;7.45;;;4.53;;
48795;SDS011;34607;48.520;-1.330;2023-04-25T17:59:35;9.23;;;5.07;;
48795;SDS011;34607;48.520;-1.330;2023-04-25T18:02:02;5.78;;;3.72;;
48795;SDS011;34607;48.520;-1.330;2023-04-25T18:04:30;4.43;;;4.00;;
48795;SDS011;34607;48.520;-1.330;2023-04-25T18:06:58;5.28;;;3.78;;
48795;SDS011;34607;48.520;-1.330;2023-04-25T18:09:25;4.80;;;3.08;;
48795;SDS011;34607;48.520;-1.330;2023-04-25T18:11:53;6.72;;;3.03;;
48795;SDS011;34607;48.520;-1.330;2023-04-25T18:14:20;7.95;;;4.10;;
48795;SDS011;34607;48.520;-1.330;2023-04-25T18:16:50;6.00;;;4.18;;
48795;SDS011;34607;48.520;-1.330;2023-04-25T18:19:17;9.57;;;3.80;;
48795;SDS011;34607;48.520;-1.330;2023-04-25T18:21:47;6.45;;;3.90;;
48795;SDS011;34607;48.520;-1.330;2023-04-25T18:24:16;4.70;;;3.35;;
48795;SDS011;34607;48.520;-1.330;2023-04-25T18:26:44;9.55;;;4.07;;
48795;SDS011;34607;48.520;-1.330;2023-04-25T18:29:12;6.80;;;4.07;;
48795;SDS011;34607;48.520;-1.330;2023-04-25T18:31:40;5.45;;;3.28;;
48795;SDS011;34607;48.520;-1.330;2023-04-25T18:34:07;7.50;;;4.10;;
48795;SDS011;34607;48.520;-1.330;2023-04-25T18:36:35;5.35;;;3.65;;
48795;SDS011;34607;48.520;-1.330;2023-04-25T18:39:02;6.38;;;3.70;;
48795;SDS011;34607;48.520;-1.330;2023-04-25T18:41:34;7.85;;;3.88;;
48795;SDS011;34607;48.520;-1.330;2023-04-25T18:44:03;7.25;;;4.25;;
48795;SDS011;34607;48.520;-1.330;2023-04-25T18:46:31;6.13;;;5.22;;
48795;SDS011;34607;48.520;-1.330;2023-04-25T18:48:58;6.38;;;4.10;;
48795;SDS011;34607;48.520;-1.330;2023-04-25T18:51:26;10.57;;;4.85;;
48795;SDS011;34607;48.520;-1.330;2023-04-25T18:53:55;7.22;;;4.28;;
48795;SDS011;34607;48.520;-1.330;2023-04-25T18:56:23;8.20;;;3.88;;
48795;SDS011;34607;48.520;-1.330;2023-04-25T18:58:52;8.02;;;4.90;;
48795;SDS011;34607;48.520;-1.330;2023-04-25T19:01:20;15.90;;;10.75;;
48795;SDS011;34607;48.520;-1.330;2023-04-25T19:03:47;10.98;;;6.72;;
48795;SDS011;34607;48.520;-1.330;2023-04-25T19:06:19;18.02;;;11.00;;
48795;SDS011;34607;48.520;-1.330;2023-04-25T19:08:48;14.30;;;8.48;;
48795;SDS011;34607;48.520;-1.330;2023-04-25T19:11:16;9.95;;;3.75;;
48795;SDS011;34607;48.520;-1.330;2023-04-25T19:13:43;9.23;;;4.72;;
48795;SDS011;34607;48.520;-1.330;2023-04-25T19:16:12;10.85;;;7.63;;
48795;SDS011;34607;48.520;-1.330;2023-04-25T19:18:39;13.20;;;8.25;;
48795;SDS011;34607;48.520;-1.330;2023-04-25T19:21:06;10.75;;;7.20;;
48795;SDS011;34607;48.520;-1.330;2023-04-25T19:23:34;10.75;;;6.55;;
48795;SDS011;34607;48.520;-1.330;2023-04-25T19:26:01;8.07;;;5.97;;
48795;SDS011;34607;48.520;-1.330;2023-04-25T19:28:28;11.05;;;7.20;;
48795;SDS011;34607;48.520;-1.330;2023-04-25T19:30:56;6.45;;;4.45;;
48795;SDS011;34607;48.520;-1.330;2023-04-25T19:33:25;9.93;;;4.03;;
48795;SDS011;34607;48.520;-1.330;2023-04-25T19:35:53;7.88;;;4.40;;
48795;SDS011;34607;48.520;-1.330;2023-04-25T19:38:20;6.82;;;3.90;;
48795;SDS011;34607;48.520;-1.330;2023-04-25T19:40:47;7.03;;;4.93;;
48795;SDS011;34607;48.520;-1.330;2023-04-25T19:43:14;8.45;;;5.43;;
48795;SDS011;34607;48.520;-1.330;2023-04-25T19:45:41;13.70;;;6.13;;
48795;SDS011;34607;48.520;-1.330;2023-04-25T19:48:09;8.23;;;4.90;;
48795;SDS011;34607;48.520;-1.330;2023-04-25T19:50:39;8.57;;;5.35;;
48795;SDS011;34607;48.520;-1.330;2023-04-25T19:53:07;11.82;;;8.90;;
48795;SDS011;34607;48.520;-1.330;2023-04-25T19:55:34;9.45;;;4.85;;
48795;SDS011;34607;48.520;-1.330;2023-04-25T19:58:01;8.27;;;4.82;;
48795;SDS011;34607;48.520;-1.330;2023-04-25T20:00:31;7.57;;;4.95;;
48795;SDS011;34607;48.520;-1.330;2023-04-25T20:02:58;10.13;;;7.20;;
48795;SDS011;34607;48.520;-1.330;2023-04-25T20:05:25;12.30;;;9.15;;
48795;SDS011;34607;48.520;-1.330;2023-04-25T20:07:53;11.45;;;8.85;;
48795;SDS011;34607;48.520;-1.330;2023-04-25T20:10:20;9.95;;;6.57;;
48795;SDS011;34607;48.520;-1.330;2023-04-25T20:12:47;7.60;;;6.13;;
48795;SDS011;34607;48.520;-1.330;2023-04-25T20:15:16;7.03;;;5.32;;
48795;SDS011;34607;48.520;-1.330;2023-04-25T20:17:43;10.18;;;4.97;;
48795;SDS011;34607;48.520;-1.330;2023-04-25T20:20:10;7.07;;;4.82;;
48795;SDS011;34607;48.520;-1.330;2023-04-25T20:22:38;8.88;;;5.03;;
48795;SDS011;34607;48.520;-1.330;2023-04-25T20:25:08;6.30;;;4.13;;
48795;SDS011;34607;48.520;-1.330;2023-04-25T20:27:36;5.53;;;4.53;;
48795;SDS011;34607;48.520;-1.330;2023-04-25T20:30:04;7.78;;;4.65;;
48795;SDS011;34607;48.520;-1.330;2023-04-25T20:32:32;6.55;;;4.70;;
48795;SDS011;34607;48.520;-1.330;2023-04-25T20:35:00;8.32;;;4.95;;
48795;SDS011;34607;48.520;-1.330;2023-04-25T20:37:27;8.43;;;4.35;;
48795;SDS011;34607;48.520;-1.330;2023-04-25T20:39:56;5.28;;;4.72;;
48795;SDS011;34607;48.520;-1.330;2023-04-25T20:42:24;6.05;;;4.78;;
48795;SDS011;34607;48.520;-1.330;2023-04-25T20:44:52;7.15;;;4.57;;
48795;SDS011;34607;48.520;-1.330;2023-04-25T20:47:19;9.27;;;5.43;;
48795;SDS011;34607;48.520;-1.330;2023-04-25T20:49:46;11.02;;;5.50;;
48795;SDS011;34607;48.520;-1.330;2023-04-25T20:52:13;11.20;;;5.53;;
48795;SDS011;34607;48.520;-1.330;2023-04-25T20:54:41;8.20;;;5.00;;
48795;SDS011;34607;48.520;-1.330;2023-04-25T20:57:08;7.43;;;5.00;;
48795;SDS011;34607;48.520;-1.330;2023-04-25T20:59:37;9.80;;;5.50;;
48795;SDS011;34607;48.520;-1.330;2023-04-25T21:02:04;8.77;;;5.22;;
48795;SDS011;34607;48.520;-1.330;2023-04-25T21:04:31;9.98;;;5.25;;
48795;SDS011;34607;48.520;-1.330;2023-04-25T21:06:57;7.38;;;4.72;;
48795;SDS011;34607;48.520;-1.330;2023-04-25T21:09:25;8.30;;;5.07;;
48795;SDS011;34607;48.520;-1.330;2023-04-25T21:11:52;13.10;;;5.65;;
48795;SDS011;34607;48.520;-1.330;2023-04-25T21:14:20;16.13;;;5.43;;
48795;SDS011;34607;48.520;-1.330;2023-04-25T21:16:51;7.20;;;4.60;;
48795;SDS011;34607;48.520;-1.330;2023-04-25T21:19:18;11.75;;;6.07;;
48795;SDS011;34607;48.520;-1.330;2023-04-25T21:21:45;9.02;;;5.47;;
48795;SDS011;34607;48.520;-1.330;2023-04-25T21:24:12;8.20;;;5.38;;
48795;SDS011;34607;48.520;-1.330;2023-04-25T21:26:40;8.38;;;5.30;;
48795;SDS011;34607;48.520;-1.330;2023-04-25T21:29:07;8.88;;;5.22;;
48795;SDS011;34607;48.520;-1.330;2023-04-25T21:31:35;15.13;;;5.72;;
48795;SDS011;34607;48.520;-1.330;2023-04-25T21:34:04;11.15;;;5.80;;
48795;SDS011;34607;48.520;-1.330;2023-04-25T21:36:32;10.25;;;6.47;;
